createdAt,value
2019-04-16T00:00:11.877Z,21.13
2019-04-16T00:00:47.327Z,21.10
2019-04-16T00:01:21.326Z,24.10
2019-04-16T00:02:12.218Z,25.47
2019-04-16T00:02:52.278Z,22.30
2019-04-16T00:03:23.872Z,19.40
2019-04-16T00:03:57.069Z,23.50
2019-04-16T00:04:37.231Z,21.83
2019-04-16T00:05:13.009Z,24.47
2019-04-16T00:05:58.655Z,17.27
2019-04-16T00:06:32.570Z,22.97
2019-04-16T00:07:05.835Z,20.17
2019-04-16T00:07:41.492Z,18.17
2019-04-16T00:08:27.874Z,26.53
2019-04-16T00:08:54.162Z,28.03
2019-04-16T00:09:31.285Z,29.17
2019-04-16T00:10:23.815Z,26.83
2019-04-16T00:10:57.901Z,33.37
2019-04-16T00:11:48.718Z,35.57
2019-04-16T00:12:21.812Z,38.00
2019-04-16T00:12:54.890Z,37.63
2019-04-16T00:13:30.880Z,36.40
2019-04-16T00:14:08.505Z,38.33
2019-04-16T00:14:42.298Z,44.97
2019-04-16T00:15:13.477Z,43.03
2019-04-16T00:15:44.762Z,47.97
2019-04-16T00:16:15.960Z,45.87
2019-04-16T00:16:47.149Z,44.27
2019-04-16T00:17:18.331Z,48.70
2019-04-16T00:17:49.523Z,41.37
2019-04-16T00:18:20.905Z,41.20
2019-04-16T00:18:57.983Z,39.20
2019-04-16T00:19:25.155Z,38.37
2019-04-16T00:19:56.349Z,40.37
2019-04-16T00:20:27.525Z,42.13
2019-04-16T00:21:00.640Z,41.53
2019-04-16T00:21:41.239Z,38.37
2019-04-16T00:22:23.529Z,36.57
2019-04-16T00:23:03.697Z,34.60
2019-04-16T00:23:53.300Z,32.57
2019-04-16T00:24:26.366Z,36.20
2019-04-16T00:24:57.592Z,32.83
2019-04-16T00:25:28.876Z,35.33
2019-04-16T00:26:00.191Z,36.57
2019-04-16T00:26:31.473Z,34.50
2019-04-16T00:27:02.923Z,31.60
2019-04-16T00:27:34.161Z,32.33
2019-04-16T00:28:05.374Z,28.87
2019-04-16T00:28:36.528Z,30.43
2019-04-16T00:29:08.848Z,32.30
2019-04-16T00:29:40.060Z,28.70
2019-04-16T00:30:12.203Z,25.10
2019-04-16T00:30:43.398Z,23.37
2019-04-16T00:31:14.678Z,23.83
2019-04-16T00:31:47.767Z,25.43
2019-04-16T00:32:20.902Z,22.90
2019-04-16T00:32:52.066Z,20.10
2019-04-16T00:33:23.287Z,22.37
2019-04-16T00:33:54.443Z,21.90
2019-04-16T00:34:25.658Z,19.07
2019-04-16T00:34:56.898Z,25.03
2019-04-16T00:35:28.146Z,17.87
2019-04-16T00:35:59.374Z,20.53
2019-04-16T00:36:30.613Z,20.50
2019-04-16T00:37:01.852Z,18.23
2019-04-16T00:37:33.109Z,20.33
2019-04-16T00:38:04.360Z,22.10
2019-04-16T00:38:40.980Z,26.87
2019-04-16T00:39:09.148Z,18.67
2019-04-16T00:39:41.847Z,22.47
2019-04-16T00:40:13.096Z,20.13
2019-04-16T00:40:44.352Z,15.23
2019-04-16T00:41:15.574Z,17.13
2019-04-16T00:41:46.780Z,19.80
2019-04-16T00:42:19.025Z,18.47
2019-04-16T00:42:50.289Z,16.70
2019-04-16T00:43:21.528Z,15.10
2019-04-16T00:43:52.764Z,18.53
2019-04-16T00:44:24.017Z,17.07
2019-04-16T00:44:55.575Z,17.07
2019-04-16T00:45:26.933Z,15.50
2019-04-16T00:45:58.275Z,17.63
2019-04-16T00:46:29.481Z,17.27
2019-04-16T00:47:00.706Z,18.20
2019-04-16T00:47:32.052Z,17.27
2019-04-16T00:48:03.290Z,20.10
2019-04-16T00:48:34.557Z,18.17
2019-04-16T00:49:05.799Z,18.87
2019-04-16T00:49:37.979Z,15.87
2019-04-16T00:50:09.489Z,18.13
2019-04-16T00:50:40.743Z,17.10
2019-04-16T00:51:11.998Z,18.20
2019-04-16T00:51:43.226Z,17.13
2019-04-16T00:52:14.389Z,14.27
2019-04-16T00:52:45.601Z,19.30
2019-04-16T00:53:16.768Z,15.33
2019-04-16T00:53:47.993Z,15.47
2019-04-16T00:54:19.143Z,15.87
2019-04-16T00:54:50.358Z,17.00
2019-04-16T00:55:21.526Z,17.47
2019-04-16T00:55:52.840Z,16.77
2019-04-16T00:56:24.032Z,15.73
2019-04-16T00:56:55.247Z,20.60
2019-04-16T00:57:26.410Z,16.30
2019-04-16T00:57:57.626Z,17.17
2019-04-16T00:58:29.840Z,21.17
2019-04-16T00:59:02.175Z,24.47
2019-04-16T00:59:33.420Z,24.17
2019-04-16T01:00:05.146Z,24.47
2019-04-16T01:00:36.400Z,27.23
2019-04-16T01:01:07.614Z,24.23
2019-04-16T01:01:38.845Z,20.63
2019-04-16T01:02:10.153Z,23.83
2019-04-16T01:02:41.355Z,18.13
2019-04-16T01:03:12.625Z,20.13
2019-04-16T01:03:43.779Z,17.47
2019-04-16T01:04:14.997Z,19.50
2019-04-16T01:04:46.172Z,19.53
2019-04-16T01:05:17.505Z,20.17
2019-04-16T01:05:48.659Z,19.17
2019-04-16T01:06:19.848Z,19.93
2019-04-16T01:06:51.042Z,22.50
2019-04-16T01:07:22.257Z,19.90
2019-04-16T01:07:53.419Z,21.73
2019-04-16T01:08:24.641Z,22.50
2019-04-16T01:08:55.805Z,26.70
2019-04-16T01:09:27.609Z,27.77
2019-04-16T01:09:58.766Z,26.60
2019-04-16T01:10:29.980Z,31.13
2019-04-16T01:11:01.125Z,26.23
2019-04-16T01:11:32.365Z,27.23
2019-04-16T01:12:03.660Z,29.03
2019-04-16T01:12:34.872Z,28.03
2019-04-16T01:13:06.030Z,30.87
2019-04-16T01:13:37.248Z,27.17
2019-04-16T01:14:08.398Z,34.47
2019-04-16T01:14:39.713Z,30.50
2019-04-16T01:15:10.971Z,31.13
2019-04-16T01:15:42.232Z,33.50
2019-04-16T01:16:13.474Z,30.20
2019-04-16T01:16:44.692Z,32.23
2019-04-16T01:17:15.892Z,35.20
2019-04-16T01:17:47.107Z,30.20
2019-04-16T01:18:18.260Z,30.83
2019-04-16T01:18:49.472Z,27.83
2019-04-16T01:19:20.625Z,32.67
2019-04-16T01:19:51.984Z,29.47
2019-04-16T01:20:23.140Z,31.10
2019-04-16T01:20:54.426Z,28.80
2019-04-16T01:21:25.652Z,28.43
2019-04-16T01:21:56.862Z,27.53
2019-04-16T01:22:28.051Z,26.80
2019-04-16T01:22:59.272Z,23.30
2019-04-16T01:23:30.430Z,23.87
2019-04-16T01:24:01.696Z,23.53
2019-04-16T01:24:32.883Z,21.90
2019-04-16T01:25:05.302Z,25.80
2019-04-16T01:25:36.461Z,24.23
2019-04-16T01:26:07.834Z,21.63
2019-04-16T01:26:39.119Z,19.87
2019-04-16T01:27:10.330Z,24.33
2019-04-16T01:27:43.670Z,19.60
2019-04-16T01:28:33.155Z,23.77
2019-04-16T01:29:06.209Z,23.07
2019-04-16T01:29:37.423Z,24.00
2019-04-16T01:30:10.572Z,25.50
2019-04-16T01:30:46.500Z,26.53
2019-04-16T01:31:17.659Z,26.20
2019-04-16T01:31:57.656Z,22.53
2019-04-16T01:32:47.159Z,19.30
2019-04-16T01:33:23.138Z,19.07
2019-04-16T01:33:57.181Z,20.93
2019-04-16T01:34:34.378Z,21.23
2019-04-16T01:35:18.708Z,19.87
2019-04-16T01:36:00.261Z,20.00
2019-04-16T01:36:36.230Z,16.73
2019-04-16T01:37:17.995Z,16.83
2019-04-16T01:38:07.596Z,19.17
2019-04-16T01:38:52.722Z,20.40
2019-04-16T01:39:28.496Z,19.87
2019-04-16T01:40:01.423Z,17.00
2019-04-16T01:40:34.506Z,20.03
2019-04-16T01:41:07.594Z,18.20
2019-04-16T01:41:38.802Z,18.87
2019-04-16T01:42:09.981Z,16.47
2019-04-16T01:42:41.358Z,19.17
2019-04-16T01:43:12.598Z,19.50
2019-04-16T01:43:43.797Z,19.47
2019-04-16T01:44:14.959Z,18.83
2019-04-16T01:44:46.174Z,18.27
2019-04-16T01:45:17.333Z,24.47
2019-04-16T01:45:48.541Z,21.40
2019-04-16T01:46:19.709Z,22.03
2019-04-16T01:46:50.924Z,19.57
2019-04-16T01:47:22.098Z,22.13
2019-04-16T01:47:53.318Z,28.10
2019-04-16T01:48:24.495Z,21.23
2019-04-16T01:48:55.713Z,25.30
2019-04-16T01:49:26.879Z,22.30
2019-04-16T01:49:58.103Z,20.13
2019-04-16T01:50:29.263Z,24.87
2019-04-16T01:51:00.568Z,21.23
2019-04-16T01:51:31.729Z,20.50
2019-04-16T01:52:02.940Z,22.70
2019-04-16T01:52:34.149Z,20.43
2019-04-16T01:53:05.384Z,24.47
2019-04-16T01:53:36.581Z,19.03
2019-04-16T01:54:08.866Z,22.90
2019-04-16T01:54:40.281Z,24.00
2019-04-16T01:55:11.810Z,25.87
2019-04-16T01:55:43.066Z,22.10
2019-04-16T01:56:14.330Z,24.23
2019-04-16T01:56:45.586Z,23.37
2019-04-16T01:57:16.854Z,21.23
2019-04-16T01:57:48.104Z,27.73
2019-04-16T01:58:19.363Z,31.70
2019-04-16T01:58:50.604Z,27.83
2019-04-16T01:59:21.984Z,28.60
2019-04-16T01:59:53.218Z,25.13
2019-04-16T02:00:24.490Z,25.60
2019-04-16T02:00:55.742Z,25.47
2019-04-16T02:01:26.985Z,24.57
2019-04-16T02:01:58.254Z,28.07
2019-04-16T02:02:29.507Z,20.77
2019-04-16T02:03:00.752Z,22.00
2019-04-16T02:03:31.998Z,24.70
2019-04-16T02:04:03.213Z,25.27
2019-04-16T02:04:34.371Z,20.90
2019-04-16T02:05:05.677Z,21.00
2019-04-16T02:05:36.844Z,17.00
2019-04-16T02:06:08.242Z,21.60
2019-04-16T02:06:39.402Z,19.53
2019-04-16T02:07:10.587Z,25.73
2019-04-16T02:07:41.935Z,24.50
2019-04-16T02:08:13.190Z,22.43
2019-04-16T02:08:44.341Z,23.53
2019-04-16T02:09:22.242Z,21.57
2019-04-16T02:09:48.608Z,20.33
2019-04-16T02:10:19.756Z,27.13
2019-04-16T02:10:50.968Z,17.53
2019-04-16T02:11:22.126Z,27.70
2019-04-16T02:11:53.331Z,23.20
2019-04-16T02:12:24.478Z,27.10
2019-04-16T02:12:55.692Z,23.07
2019-04-16T02:13:26.841Z,19.83
2019-04-16T02:13:58.051Z,23.87
2019-04-16T02:14:29.235Z,21.83
2019-04-16T02:15:00.485Z,24.40
2019-04-16T02:15:31.941Z,25.80
2019-04-16T02:16:03.155Z,18.90
2019-04-16T02:16:34.343Z,16.67
2019-04-16T02:17:05.631Z,18.90
2019-04-16T02:17:36.786Z,23.00
2019-04-16T02:18:08.254Z,21.10
2019-04-16T02:18:39.408Z,19.40
2019-04-16T02:19:10.616Z,20.83
2019-04-16T02:19:41.798Z,23.47
2019-04-16T02:20:13.023Z,20.77
2019-04-16T02:20:44.186Z,21.20
2019-04-16T02:21:15.408Z,21.97
2019-04-16T02:21:46.584Z,25.13
2019-04-16T02:22:17.799Z,22.30
2019-04-16T02:22:48.956Z,24.63
2019-04-16T02:23:20.171Z,23.87
2019-04-16T02:23:51.331Z,22.17
2019-04-16T02:24:22.661Z,19.07
2019-04-16T02:24:53.857Z,22.30
2019-04-16T02:25:25.043Z,23.00
2019-04-16T02:25:56.253Z,22.83
2019-04-16T02:26:27.441Z,20.10
2019-04-16T02:26:58.625Z,26.60
2019-04-16T02:27:29.823Z,26.03
2019-04-16T02:28:01.019Z,20.63
2019-04-16T02:28:32.210Z,28.93
2019-04-16T02:29:03.395Z,33.57
2019-04-16T02:29:34.590Z,33.93
2019-04-16T02:30:06.036Z,35.20
2019-04-16T02:30:39.529Z,31.73
2019-04-16T02:31:15.854Z,37.47
2019-04-16T02:31:43.624Z,34.00
2019-04-16T02:32:14.781Z,27.80
2019-04-16T02:32:46.014Z,31.23
2019-04-16T02:33:18.189Z,29.10
2019-04-16T02:33:50.661Z,34.73
2019-04-16T02:34:21.859Z,27.80
2019-04-16T02:34:53.154Z,31.20
2019-04-16T02:35:24.384Z,27.10
2019-04-16T02:35:55.572Z,32.63
2019-04-16T02:36:26.757Z,30.00
2019-04-16T02:37:02.494Z,26.00
2019-04-16T02:37:35.520Z,27.57
2019-04-16T02:38:11.124Z,27.37
2019-04-16T02:38:37.162Z,23.27
2019-04-16T02:39:08.318Z,24.33
2019-04-16T02:39:48.581Z,23.17
2019-04-16T02:40:17.022Z,24.13
2019-04-16T02:40:51.599Z,26.83
2019-04-16T02:41:23.236Z,23.33
2019-04-16T02:41:56.826Z,23.63
2019-04-16T02:42:30.445Z,19.83
2019-04-16T02:43:03.944Z,23.13
2019-04-16T02:43:31.540Z,21.43
2019-04-16T02:44:03.274Z,22.50
2019-04-16T02:44:34.435Z,24.53
2019-04-16T02:45:05.758Z,21.70
2019-04-16T02:45:36.956Z,21.23
2019-04-16T02:46:08.505Z,27.80
2019-04-16T02:46:40.753Z,34.40
2019-04-16T02:47:12.009Z,39.83
2019-04-16T02:47:43.247Z,31.17
2019-04-16T02:48:16.668Z,32.70
2019-04-16T02:48:51.473Z,29.83
2019-04-16T02:49:24.453Z,28.30
2019-04-16T02:49:56.802Z,26.23
2019-04-16T02:50:32.258Z,30.77
2019-04-16T02:51:08.710Z,33.20
2019-04-16T02:51:41.838Z,31.60
2019-04-16T02:52:16.451Z,39.43
2019-04-16T02:52:55.646Z,42.37
2019-04-16T02:53:29.712Z,36.20
2019-04-16T02:54:02.773Z,32.70
2019-04-16T02:54:35.903Z,40.57
2019-04-16T02:55:20.703Z,33.73
2019-04-16T02:55:53.814Z,29.33
2019-04-16T02:56:24.997Z,29.30
2019-04-16T02:56:59.102Z,26.87
2019-04-16T02:57:45.370Z,26.90
2019-04-16T02:58:21.407Z,26.70
2019-04-16T02:59:00.510Z,25.43
2019-04-16T02:59:33.668Z,24.07
2019-04-16T03:00:06.819Z,24.40
2019-04-16T03:00:38.521Z,27.80
2019-04-16T03:01:28.093Z,25.17
2019-04-16T03:02:17.457Z,23.60
2019-04-16T03:02:56.400Z,23.63
2019-04-16T03:03:32.145Z,24.93
2019-04-16T03:04:14.203Z,26.87
2019-04-16T03:04:58.040Z,24.03
2019-04-16T03:05:29.014Z,20.20
2019-04-16T03:06:01.881Z,21.50
2019-04-16T03:06:33.383Z,25.30
2019-04-16T03:07:04.649Z,25.63
2019-04-16T03:07:35.895Z,22.17
2019-04-16T03:08:07.114Z,23.87
2019-04-16T03:08:38.443Z,25.47
2019-04-16T03:09:09.976Z,25.00
2019-04-16T03:09:41.532Z,24.83
2019-04-16T03:10:13.914Z,22.17
2019-04-16T03:10:45.421Z,25.10
2019-04-16T03:11:17.994Z,21.10
2019-04-16T03:11:49.365Z,23.60
2019-04-16T03:12:21.527Z,25.43
2019-04-16T03:12:52.980Z,24.30
2019-04-16T03:13:24.822Z,23.77
2019-04-16T03:13:59.242Z,26.27
2019-04-16T03:14:30.131Z,25.33
2019-04-16T03:15:02.795Z,26.47
2019-04-16T03:15:35.978Z,26.00
2019-04-16T03:16:09.655Z,22.97
2019-04-16T03:16:55.536Z,24.93
2019-04-16T03:17:42.914Z,29.80
2019-04-16T03:18:16.230Z,24.97
2019-04-16T03:19:04.173Z,27.83
2019-04-16T03:19:43.181Z,34.37
2019-04-16T03:20:16.529Z,39.43
2019-04-16T03:20:47.776Z,35.77
2019-04-16T03:21:19.021Z,39.80
2019-04-16T03:21:50.267Z,41.63
2019-04-16T03:22:21.483Z,40.47
2019-04-16T03:22:52.669Z,42.43
2019-04-16T03:23:23.906Z,37.83
2019-04-16T03:23:55.146Z,33.17
2019-04-16T03:24:26.394Z,31.80
2019-04-16T03:24:57.744Z,34.33
2019-04-16T03:25:29.024Z,34.63
2019-04-16T03:26:00.261Z,39.20
2019-04-16T03:26:31.494Z,39.17
2019-04-16T03:27:04.567Z,44.90
2019-04-16T03:27:35.858Z,50.67
2019-04-16T03:28:07.040Z,47.73
2019-04-16T03:28:38.390Z,50.73
2019-04-16T03:29:10.652Z,46.60
2019-04-16T03:29:41.992Z,47.27
2019-04-16T03:30:13.650Z,54.50
2019-04-16T03:30:45.031Z,52.63
2019-04-16T03:31:22.304Z,54.47
2019-04-16T03:31:57.323Z,48.23
2019-04-16T03:32:22.606Z,39.60
2019-04-16T03:32:53.829Z,37.83
2019-04-16T03:33:25.265Z,34.47
2019-04-16T03:33:56.549Z,36.83
2019-04-16T03:34:27.823Z,33.53
2019-04-16T03:34:59.111Z,31.70
2019-04-16T03:35:30.389Z,36.60
2019-04-16T03:36:01.646Z,38.50
2019-04-16T03:36:32.893Z,48.50
2019-04-16T03:37:04.145Z,40.73
2019-04-16T03:37:35.328Z,41.80
2019-04-16T03:38:06.574Z,32.93
2019-04-16T03:38:41.803Z,38.60
2019-04-16T03:39:13.190Z,38.40
2019-04-16T03:39:44.927Z,39.73
2019-04-16T03:40:18.642Z,64.93
2019-04-16T03:40:49.467Z,81.57
2019-04-16T03:41:20.722Z,79.53
2019-04-16T03:41:56.016Z,90.83
2019-04-16T03:42:27.390Z,107.40
2019-04-16T03:42:59.302Z,163.10
2019-04-16T03:43:32.828Z,126.20
2019-04-16T03:44:05.104Z,117.47
2019-04-16T03:44:37.452Z,138.20
2019-04-16T03:45:09.864Z,137.17
2019-04-16T03:45:41.750Z,172.47
2019-04-16T03:46:14.190Z,132.93
2019-04-16T03:46:46.916Z,93.30
2019-04-16T03:47:19.877Z,71.23
2019-04-16T03:47:52.280Z,65.80
2019-04-16T03:48:24.483Z,54.53
2019-04-16T03:48:56.471Z,56.57
2019-04-16T03:49:28.491Z,51.03
2019-04-16T03:50:00.254Z,46.20
2019-04-16T03:50:32.231Z,49.23
2019-04-16T03:51:04.757Z,51.13
2019-04-16T03:51:36.579Z,48.23
2019-04-16T03:52:09.437Z,43.97
2019-04-16T03:52:45.501Z,37.77
2019-04-16T03:53:17.487Z,46.40
2019-04-16T03:53:49.541Z,56.00
2019-04-16T03:54:22.380Z,63.60
2019-04-16T03:54:54.709Z,177.53
2019-04-16T03:55:26.573Z,209.70
2019-04-16T03:55:58.305Z,224.50
2019-04-16T03:56:31.189Z,305.27
2019-04-16T03:57:02.876Z,307.90
2019-04-16T03:57:34.163Z,274.70
2019-04-16T03:58:06.751Z,250.97
2019-04-16T03:58:39.393Z,261.90
2019-04-16T03:59:12.044Z,244.80
2019-04-16T03:59:43.791Z,220.70
2019-04-16T04:00:15.031Z,212.40
2019-04-16T04:00:46.275Z,200.47
2019-04-16T04:01:17.537Z,199.20
2019-04-16T04:01:48.769Z,193.10
2019-04-16T04:02:22.868Z,173.63
2019-04-16T04:02:55.149Z,150.13
2019-04-16T04:03:26.928Z,155.73
2019-04-16T04:03:58.588Z,153.23
2019-04-16T04:04:30.030Z,148.77
2019-04-16T04:05:06.119Z,142.73
2019-04-16T04:05:35.663Z,136.43
2019-04-16T04:06:08.082Z,130.53
2019-04-16T04:06:40.616Z,115.93
2019-04-16T04:07:13.326Z,94.73
2019-04-16T04:07:45.092Z,81.93
2019-04-16T04:08:17.921Z,75.63
2019-04-16T04:08:53.132Z,65.70
2019-04-16T04:09:22.982Z,62.97
2019-04-16T04:09:55.184Z,51.30
2019-04-16T04:10:30.789Z,52.60
2019-04-16T04:10:59.500Z,44.90
2019-04-16T04:11:31.974Z,40.77
2019-04-16T04:12:03.158Z,38.07
2019-04-16T04:12:34.489Z,34.93
2019-04-16T04:13:05.843Z,29.73
2019-04-16T04:13:37.057Z,35.20
2019-04-16T04:14:09.345Z,32.33
2019-04-16T04:14:41.545Z,27.43
2019-04-16T04:15:13.092Z,28.83
2019-04-16T04:15:44.353Z,30.90
2019-04-16T04:16:15.600Z,29.77
2019-04-16T04:16:46.841Z,28.03
2019-04-16T04:17:18.045Z,26.50
2019-04-16T04:17:49.293Z,24.57
2019-04-16T04:18:20.483Z,26.33
2019-04-16T04:18:51.693Z,28.60
2019-04-16T04:19:22.877Z,25.50
2019-04-16T04:19:54.071Z,26.90
2019-04-16T04:20:25.293Z,25.57
2019-04-16T04:20:56.466Z,24.33
2019-04-16T04:21:27.695Z,23.60
2019-04-16T04:21:58.881Z,30.20
2019-04-16T04:22:30.068Z,22.90
2019-04-16T04:23:01.250Z,27.77
2019-04-16T04:23:32.444Z,24.40
2019-04-16T04:24:03.659Z,21.37
2019-04-16T04:24:34.854Z,24.70
2019-04-16T04:25:06.606Z,30.20
2019-04-16T04:25:38.942Z,24.47
2019-04-16T04:26:10.306Z,23.67
2019-04-16T04:26:42.402Z,24.83
2019-04-16T04:27:18.229Z,24.53
2019-04-16T04:27:47.703Z,29.97
2019-04-16T04:28:20.568Z,26.97
2019-04-16T04:28:52.643Z,23.20
2019-04-16T04:29:24.862Z,27.27
2019-04-16T04:29:57.270Z,26.90
2019-04-16T04:30:29.551Z,27.70
2019-04-16T04:31:01.984Z,25.00
2019-04-16T04:31:33.281Z,24.43
2019-04-16T04:32:04.482Z,24.23
2019-04-16T04:32:36.301Z,28.50
2019-04-16T04:33:09.431Z,26.80
2019-04-16T04:33:43.003Z,27.87
2019-04-16T04:34:16.987Z,25.67
2019-04-16T04:34:48.575Z,25.63
2019-04-16T04:35:22.077Z,31.20
2019-04-16T04:35:53.573Z,29.00
2019-04-16T04:36:27.093Z,24.77
2019-04-16T04:36:59.733Z,26.37
2019-04-16T04:37:31.929Z,25.97
2019-04-16T04:38:04.203Z,26.50
2019-04-16T04:38:37.571Z,32.00
2019-04-16T04:39:14.432Z,39.10
2019-04-16T04:39:44.253Z,41.00
2019-04-16T04:40:17.544Z,39.83
2019-04-16T04:40:50.952Z,57.77
2019-04-16T04:41:23.049Z,39.00
2019-04-16T04:41:56.448Z,39.67
2019-04-16T04:42:29.014Z,40.63
2019-04-16T04:43:01.725Z,39.40
2019-04-16T04:43:34.202Z,40.80
2019-04-16T04:44:06.586Z,32.10
2019-04-16T04:44:37.783Z,43.07
2019-04-16T04:45:10.201Z,36.67
2019-04-16T04:45:41.937Z,28.83
2019-04-16T04:46:14.970Z,28.37
2019-04-16T04:46:46.961Z,30.87
2019-04-16T04:47:19.677Z,34.93
2019-04-16T04:47:52.273Z,26.50
2019-04-16T04:48:24.344Z,31.87
2019-04-16T04:48:59.908Z,26.83
2019-04-16T04:49:30.377Z,28.93
2019-04-16T04:50:04.439Z,31.17
2019-04-16T04:50:36.088Z,24.50
2019-04-16T04:51:08.733Z,32.07
2019-04-16T04:51:43.527Z,28.93
2019-04-16T04:52:14.641Z,37.10
2019-04-16T04:52:46.889Z,26.53
2019-04-16T04:53:19.618Z,30.07
2019-04-16T04:53:51.363Z,31.00
2019-04-16T04:54:23.497Z,28.07
2019-04-16T04:54:54.942Z,26.87
2019-04-16T04:55:27.035Z,25.43
2019-04-16T04:55:58.301Z,25.90
2019-04-16T04:56:29.441Z,27.57
2019-04-16T04:57:00.657Z,30.00
2019-04-16T04:57:32.037Z,30.03
2019-04-16T04:58:03.465Z,26.37
2019-04-16T04:58:34.894Z,23.10
2019-04-16T04:59:06.240Z,33.60
2019-04-16T04:59:38.526Z,31.40
2019-04-16T05:00:09.845Z,34.80
2019-04-16T05:00:41.330Z,28.67
2019-04-16T05:01:14.100Z,31.60
2019-04-16T05:01:45.629Z,33.13
2019-04-16T05:02:16.956Z,24.37
2019-04-16T05:02:48.205Z,31.63
2019-04-16T05:03:38.204Z,29.27
2019-04-16T05:04:20.626Z,26.23
2019-04-16T05:04:58.068Z,40.13
2019-04-16T05:05:31.126Z,26.97
2019-04-16T05:06:19.016Z,29.17
2019-04-16T05:06:54.341Z,26.70
2019-04-16T05:07:25.759Z,25.43
2019-04-16T05:07:59.986Z,26.17
2019-04-16T05:08:31.368Z,25.10
2019-04-16T05:09:04.661Z,27.40
2019-04-16T05:09:36.763Z,31.13
2019-04-16T05:10:08.407Z,29.30
2019-04-16T05:10:42.925Z,27.63
2019-04-16T05:11:15.486Z,28.97
2019-04-16T05:11:48.377Z,29.27
2019-04-16T05:12:21.325Z,26.20
2019-04-16T05:12:53.575Z,28.00
2019-04-16T05:13:25.332Z,28.37
2019-04-16T05:13:57.110Z,32.77
2019-04-16T05:14:28.465Z,33.23
2019-04-16T05:14:59.698Z,31.63
2019-04-16T05:15:30.836Z,33.63
2019-04-16T05:16:03.085Z,27.20
2019-04-16T05:16:35.049Z,44.97
2019-04-16T05:17:07.464Z,82.57
2019-04-16T05:17:39.865Z,42.63
2019-04-16T05:18:11.599Z,29.70
2019-04-16T05:18:42.839Z,34.13
2019-04-16T05:19:15.511Z,26.63
2019-04-16T05:19:47.147Z,26.23
2019-04-16T05:20:18.388Z,28.73
2019-04-16T05:20:49.551Z,26.87
2019-04-16T05:21:20.780Z,28.20
2019-04-16T05:21:51.922Z,34.13
2019-04-16T05:22:23.155Z,25.13
2019-04-16T05:22:54.523Z,36.77
2019-04-16T05:23:26.175Z,33.20
2019-04-16T05:23:58.094Z,32.13
2019-04-16T05:24:29.998Z,33.63
2019-04-16T05:25:03.495Z,26.93
2019-04-16T05:25:34.717Z,30.50
2019-04-16T05:26:05.880Z,25.87
2019-04-16T05:26:37.287Z,27.57
2019-04-16T05:27:09.439Z,25.57
2019-04-16T05:27:41.574Z,27.27
2019-04-16T05:28:13.395Z,31.23
2019-04-16T05:28:45.728Z,30.33
2019-04-16T05:29:18.608Z,27.20
2019-04-16T05:29:49.996Z,25.77
2019-04-16T05:30:22.096Z,30.17
2019-04-16T05:30:53.448Z,24.73
2019-04-16T05:31:25.676Z,26.20
2019-04-16T05:31:58.248Z,28.20
2019-04-16T05:32:33.908Z,26.80
2019-04-16T05:33:05.633Z,28.23
2019-04-16T05:33:37.498Z,25.60
2019-04-16T05:34:09.208Z,27.67
2019-04-16T05:34:41.135Z,28.97
2019-04-16T05:35:12.504Z,27.83
2019-04-16T05:35:43.723Z,21.60
2019-04-16T05:36:15.437Z,25.63
2019-04-16T05:36:48.124Z,22.90
2019-04-16T05:37:20.929Z,31.27
2019-04-16T05:37:52.349Z,25.30
2019-04-16T05:38:24.494Z,25.93
2019-04-16T05:38:56.425Z,34.90
2019-04-16T05:39:28.569Z,25.90
2019-04-16T05:39:59.831Z,29.50
2019-04-16T05:40:34.348Z,26.93
2019-04-16T05:41:13.235Z,26.57
2019-04-16T05:41:37.227Z,24.27
2019-04-16T05:42:08.459Z,25.30
2019-04-16T05:42:39.655Z,27.93
2019-04-16T05:43:10.853Z,26.07
2019-04-16T05:43:42.055Z,31.30
2019-04-16T05:44:13.229Z,30.10
2019-04-16T05:44:44.469Z,28.43
2019-04-16T05:45:15.765Z,26.73
2019-04-16T05:45:46.956Z,24.03
2019-04-16T05:46:19.140Z,26.20
2019-04-16T05:46:50.349Z,25.20
2019-04-16T05:47:21.535Z,24.27
2019-04-16T05:47:52.708Z,20.40
2019-04-16T05:48:23.908Z,24.90
2019-04-16T05:48:55.092Z,22.37
2019-04-16T05:49:26.537Z,25.20
2019-04-16T05:49:58.687Z,24.23
2019-04-16T05:50:30.078Z,30.00
2019-04-16T05:51:01.258Z,22.70
2019-04-16T05:51:32.456Z,30.43
2019-04-16T05:52:04.172Z,21.53
2019-04-16T05:52:36.517Z,24.40
2019-04-16T05:53:09.336Z,21.57
2019-04-16T05:53:42.623Z,27.40
2019-04-16T05:54:21.636Z,19.77
2019-04-16T05:55:09.474Z,23.83
2019-04-16T05:55:49.651Z,18.77
2019-04-16T05:56:24.657Z,22.30
2019-04-16T05:57:13.289Z,19.97
2019-04-16T05:57:46.458Z,17.80
2019-04-16T05:58:17.742Z,22.57
2019-04-16T05:58:48.906Z,21.60
2019-04-16T05:59:20.063Z,22.70
2019-04-16T05:59:52.250Z,26.83
2019-04-16T06:00:25.325Z,30.03
2019-04-16T06:01:01.062Z,23.83
2019-04-16T06:01:46.227Z,19.13
2019-04-16T06:02:26.107Z,22.73
2019-04-16T06:02:57.341Z,21.97
2019-04-16T06:03:28.517Z,24.47
2019-04-16T06:03:59.741Z,25.90
2019-04-16T06:04:30.903Z,23.47
2019-04-16T06:05:03.725Z,21.00
2019-04-16T06:05:34.891Z,23.80
2019-04-16T06:06:06.115Z,19.17
2019-04-16T06:06:37.313Z,22.00
2019-04-16T06:07:08.525Z,20.37
2019-04-16T06:07:39.727Z,25.57
2019-04-16T06:08:11.239Z,21.10
2019-04-16T06:08:42.422Z,23.27
2019-04-16T06:09:13.631Z,23.13
2019-04-16T06:09:45.352Z,22.83
2019-04-16T06:10:18.269Z,23.60
2019-04-16T06:10:50.935Z,24.27
2019-04-16T06:11:29.419Z,22.63
2019-04-16T06:11:55.511Z,21.17
2019-04-16T06:12:28.605Z,21.80
2019-04-16T06:12:59.813Z,19.50
2019-04-16T06:13:35.583Z,24.83
2019-04-16T06:14:16.874Z,32.47
2019-04-16T06:15:01.304Z,21.77
2019-04-16T06:15:37.320Z,21.17
2019-04-16T06:16:16.602Z,21.67
2019-04-16T06:17:06.342Z,27.40
2019-04-16T06:17:55.866Z,23.27
2019-04-16T06:18:37.044Z,18.90
2019-04-16T06:19:15.038Z,30.60
2019-04-16T06:19:51.029Z,23.93
2019-04-16T06:20:24.074Z,21.20
2019-04-16T06:20:55.302Z,25.93
2019-04-16T06:21:29.489Z,20.33
2019-04-16T06:22:06.678Z,21.43
2019-04-16T06:22:51.776Z,23.00
2019-04-16T06:23:41.122Z,18.60
2019-04-16T06:24:12.281Z,26.87
2019-04-16T06:25:08.383Z,21.37
2019-04-16T06:25:41.268Z,24.63
2019-04-16T06:26:16.617Z,21.03
2019-04-16T06:27:07.216Z,22.37
2019-04-16T06:27:40.351Z,26.27
2019-04-16T06:28:20.384Z,22.50
2019-04-16T06:28:55.147Z,32.20
2019-04-16T06:29:25.392Z,21.60
2019-04-16T06:30:05.742Z,23.50
2019-04-16T06:30:38.787Z,25.30
2019-04-16T06:31:11.967Z,25.50
2019-04-16T06:31:45.031Z,30.87
2019-04-16T06:32:16.272Z,25.43
2019-04-16T06:33:01.385Z,28.00
2019-04-16T06:33:32.580Z,30.70
2019-04-16T06:34:24.354Z,26.03
2019-04-16T06:35:02.894Z,24.90
2019-04-16T06:35:43.594Z,24.67
2019-04-16T06:36:22.828Z,24.47
2019-04-16T06:36:58.829Z,32.40
2019-04-16T06:37:48.199Z,26.63
2019-04-16T06:38:21.571Z,28.53
2019-04-16T06:39:03.523Z,25.23
2019-04-16T06:39:38.529Z,22.13
2019-04-16T06:40:11.637Z,23.70
2019-04-16T06:40:48.134Z,21.67
2019-04-16T06:41:41.607Z,24.50
2019-04-16T06:42:06.104Z,23.60
2019-04-16T06:42:39.238Z,22.90
2019-04-16T06:43:28.795Z,25.93
2019-04-16T06:44:03.944Z,19.67
2019-04-16T06:44:36.886Z,26.53
2019-04-16T06:45:12.752Z,24.37
2019-04-16T06:45:45.812Z,25.83
2019-04-16T06:46:27.601Z,21.20
2019-04-16T06:47:00.671Z,23.23
2019-04-16T06:47:33.798Z,23.47
2019-04-16T06:48:13.225Z,25.83
2019-04-16T06:48:47.810Z,22.37
2019-04-16T06:49:20.903Z,27.97
2019-04-16T06:49:57.149Z,25.97
2019-04-16T06:50:32.529Z,27.57
2019-04-16T06:51:01.585Z,28.83
2019-04-16T06:51:50.975Z,32.60
2019-04-16T06:52:37.177Z,21.77
2019-04-16T06:53:08.619Z,27.77
2019-04-16T06:53:44.361Z,28.80
2019-04-16T06:54:34.403Z,28.07
2019-04-16T06:55:19.535Z,23.93
2019-04-16T06:55:56.564Z,25.37
2019-04-16T06:56:30.578Z,26.23
2019-04-16T06:57:20.233Z,28.43
2019-04-16T06:58:09.561Z,23.77
2019-04-16T06:58:51.259Z,28.43
2019-04-16T06:59:17.901Z,23.50
2019-04-16T06:59:59.459Z,29.97
2019-04-16T07:00:39.831Z,24.93
2019-04-16T07:01:17.252Z,25.03
2019-04-16T07:01:56.493Z,25.57
2019-04-16T07:02:44.006Z,21.50
2019-04-16T07:03:33.963Z,31.70
2019-04-16T07:04:07.127Z,23.70
2019-04-16T07:04:46.323Z,27.07
2019-04-16T07:05:35.981Z,25.90
2019-04-16T07:06:25.805Z,22.70
2019-04-16T07:07:15.440Z,18.77
2019-04-16T07:08:06.848Z,20.07
2019-04-16T07:08:41.984Z,21.57
2019-04-16T07:09:13.322Z,24.23
2019-04-16T07:09:46.437Z,23.20